Time;durP1;ratioP1;P1;durP2;ratioP2;P2;SDS_P1;SDS_P2;PMS_P1;PMS_P2;Temp;Humidity;BMP_temperature;BMP_pressure;BME280_temperature;BME280_humidity;BME280_pressure;Samples;Min_cycle;Max_cycle;Signal;HPM_P1;HPM_P2
2021/10/22 00:01:33;;;;;;;3.60;3.50;;;;;;;6.34;89.56;101117.50;4385735;32;20700;-69
2021/10/22 00:03:59;;;;;;;3.78;3.62;;;;;;;6.30;90.58;101113.25;4363720;32;20127;-68
2021/10/22 00:06:25;;;;;;;3.60;3.50;;;;;;;6.30;89.78;101121.94;4367604;32;20394;-69
2021/10/22 00:08:50;;;;;;;3.40;3.30;;;;;;;6.22;90.81;101120.44;4364702;32;20080;-68
2021/10/22 00:11:16;;;;;;;5.20;5.00;;;;;;;6.14;90.44;101115.44;4389792;32;20128;-66
2021/10/22 00:13:41;;;;;;;3.55;3.45;;;;;;;6.18;90.28;101122.28;4381856;32;20119;-70
2021/10/22 00:16:07;;;;;;;3.55;3.45;;;;;;;5.09;90.43;100954.09;4388077;32;20090;-69
2021/10/22 00:18:32;;;;;;;4.03;3.83;;;;;;;6.08;91.27;101113.00;4381139;32;20073;-69
2021/10/22 00:20:57;;;;;;;3.40;3.30;;;;;;;6.09;90.41;101125.09;4364103;32;20407;-69
2021/10/22 00:23:23;;;;;;;5.25;5.05;;;;;;;5.88;91.03;101098.72;4376586;32;20084;-70
2021/10/22 00:25:48;;;;;;;4.25;4.05;;;;;;;5.89;91.82;101121.25;4386725;32;20559;-69
2021/10/22 00:28:13;;;;;;;5.22;5.03;;;;;;;6.04;90.66;101127.00;4382381;32;20146;-69
2021/10/22 00:30:39;;;;;;;3.60;3.50;;;;;;;6.00;91.67;101126.22;4368617;32;20116;-69
2021/10/22 00:33:04;;;;;;;3.40;3.30;;;;;;;5.97;92.01;101124.56;4378105;32;20148;-69
2021/10/22 00:35:29;;;;;;;3.60;3.50;;;;;;;5.98;91.67;101128.00;4366018;32;20633;-69
2021/10/22 00:37:55;;;;;;;3.45;3.35;;;;;;;6.00;92.25;101123.62;4365119;32;20057;-68
2021/10/22 00:40:22;;;;;;;5.50;5.30;;;;;;;6.04;92.55;101121.78;4366964;32;20069;-69
2021/10/22 00:42:47;;;;;;;3.40;3.30;;;;;;;5.96;92.24;101114.16;4389092;32;20085;-69
2021/10/22 00:45:13;;;;;;;5.00;4.80;;;;;;;5.74;92.38;101093.84;4387794;32;20504;-66
2021/10/22 00:47:39;;;;;;;3.50;3.40;;;;;;;6.07;91.73;101140.78;4366655;32;20076;-69
2021/10/22 00:50:04;;;;;;;3.40;3.30;;;;;;;6.03;92.18;101138.31;4373900;32;20373;-67
2021/10/22 00:52:31;;;;;;;4.40;4.20;;;;;;;5.98;91.84;101133.22;4366189;32;20077;-70
2021/10/22 00:54:57;;;;;;;3.30;3.20;;;;;;;5.87;92.05;101136.06;4389068;32;20080;-69
2021/10/22 00:57:23;;;;;;;5.20;5.00;;;;;;;5.78;93.18;101134.53;4376575;32;20102;-69
2021/10/22 00:59:48;;;;;;;3.65;3.55;;;;;;;5.64;92.66;101114.97;4374811;32;20485;-69
2021/10/22 01:02:14;;;;;;;5.32;5.12;;;;;;;5.76;93.17;101140.69;4373296;32;20587;-67
2021/10/22 01:04:39;;;;;;;3.50;3.40;;;;;;;5.82;93.09;101134.47;4379189;32;20602;-69
2021/10/22 01:07:06;;;;;;;3.50;3.40;;;;;;;5.11;92.91;101013.88;4378568;32;20092;-69
2021/10/22 01:09:31;;;;;;;3.47;3.37;;;;;;;5.83;92.93;101136.19;4377794;32;20651;-69
2021/10/22 01:11:56;;;;;;;3.53;3.42;;;;;;;5.74;93.22;101129.47;4369434;32;20069;-68
2021/10/22 01:14:22;;;;;;;4.87;4.68;;;;;;;5.71;92.98;101138.22;4361513;32;20926;-69
2021/10/22 01:16:47;;;;;;;3.37;3.28;;;;;;;5.63;94.33;101140.12;4364893;32;20473;-69
2021/10/22 01:19:17;;;;;;;5.80;5.50;;;;;;;5.36;94.42;101103.47;4377328;32;20080;-66
2021/10/22 01:21:43;;;;;;;3.47;3.37;;;;;;;5.56;94.99;101135.97;4381755;32;20069;-68
2021/10/22 01:24:09;;;;;;;3.35;3.25;;;;;;;5.51;94.62;101146.50;4377403;32;20508;-69
2021/10/22 01:26:34;;;;;;;3.58;3.47;;;;;;;5.50;94.47;101136.97;4381914;32;20069;-69
2021/10/22 01:28:59;;;;;;;3.30;3.20;;;;;;;5.47;94.57;101139.66;4369346;32;20151;-69
2021/10/22 01:31:26;;;;;;;4.85;4.65;;;;;;;5.49;94.41;101135.28;4372261;32;20087;-69
2021/10/22 01:33:52;;;;;;;3.37;3.28;;;;;;;5.46;95.04;101142.31;4364905;32;20761;-68
2021/10/22 01:36:18;;;;;;;5.37;5.18;;;;;;;5.39;94.81;101134.66;4365871;32;20088;-69
2021/10/22 01:38:43;;;;;;;3.80;3.67;;;;;;;5.35;95.50;101132.13;4391484;32;20145;-69
2021/10/22 01:41:08;;;;;;;3.60;3.47;;;;;;;5.37;94.88;101135.53;4359742;32;20070;-68
2021/10/22 01:43:34;;;;;;;3.50;3.40;;;;;;;5.30;95.71;101140.06;4378200;32;20080;-69
2021/10/22 01:45:59;;;;;;;3.50;3.40;;;;;;;5.00;95.03;101092.19;4372630;32;20072;-69
2021/10/22 01:48:24;;;;;;;4.65;4.45;;;;;;;5.25;95.92;101133.22;4376688;32;20455;-69
2021/10/22 01:50:50;;;;;;;3.60;3.50;;;;;;;4.24;95.99;100973.41;4368152;32;20066;-69
2021/10/22 01:53:16;;;;;;;3.45;3.35;;;;;;;5.19;96.10;101131.63;4373186;32;20155;-69
2021/10/22 01:55:41;;;;;;;3.70;3.60;;;;;;;4.83;96.00;101074.37;4360161;32;20077;-68
2021/10/22 01:58:08;;;;;;;3.40;3.30;;;;;;;5.20;95.86;101136.81;4362585;32;20139;-68
2021/10/22 02:00:33;;;;;;;3.60;3.50;;;;;;;5.13;95.67;101127.44;4382135;32;20081;-69
2021/10/22 02:02:59;;;;;;;3.33;3.22;;;;;;;5.12;95.79;101127.47;4375974;32;20084;-69
2021/10/22 02:05:24;;;;;;;5.55;5.35;;;;;;;5.12;95.46;101127.47;4363828;32;20077;-68
2021/10/22 02:07:49;;;;;;;3.30;3.20;;;;;;;5.10;95.81;101131.84;4363292;32;20344;-69
2021/10/22 02:10:15;;;;;;;26.98;6.05;;;;;;;5.09;96.10;101131.00;4367334;32;20087;-68
2021/10/22 02:12:40;;;;;;;3.30;3.20;;;;;;;5.04;95.73;101132.84;4373820;32;20065;-69
2021/10/22 02:15:06;;;;;;;4.25;3.92;;;;;;;5.03;95.72;101122.47;4361892;32;20085;-69
2021/10/22 02:17:31;;;;;;;5.05;4.85;;;;;;;5.02;95.55;101120.75;4376608;32;20557;-68
2021/10/22 02:19:57;;;;;;;3.78;3.58;;;;;;;4.96;95.65;101112.19;4357915;32;20085;-68
2021/10/22 02:22:22;;;;;;;3.40;3.30;;;;;;;4.96;95.70;101120.00;4377821;32;20077;-69
2021/10/22 02:24:48;;;;;;;3.60;3.50;;;;;;;4.94;95.03;101116.56;4351490;32;20081;-69
2021/10/22 02:27:13;;;;;;;3.30;3.20;;;;;;;4.90;95.28;101109.72;4374897;32;20136;-68
2021/10/22 02:29:38;;;;;;;5.15;4.95;;;;;;;4.86;95.35;101112.44;4359497;32;20616;-68
2021/10/22 02:32:04;;;;;;;3.50;3.40;;;;;;;4.82;95.50;101106.44;4375216;32;20215;-69
2021/10/22 02:34:30;;;;;;;5.28;5.07;;;;;;;4.51;94.63;101062.03;4366629;32;20076;-66
2021/10/22 02:36:56;;;;;;;3.50;3.40;;;;;;;4.32;94.58;101026.06;4350690;32;20093;-68
2021/10/22 02:39:21;;;;;;;3.70;3.60;;;;;;;4.79;95.05;101109.97;4393397;32;20454;-69
2021/10/22 02:41:46;;;;;;;3.22;3.12;;;;;;;4.79;94.68;101122.09;4362542;32;20057;-69
2021/10/22 02:44:12;;;;;;;3.40;3.30;;;;;;;4.77;94.50;101123.88;4375504;32;20078;-68
2021/10/22 02:46:37;;;;;;;5.35;5.15;;;;;;;4.71;94.95;101124.00;4381468;32;20580;-69
2021/10/22 02:49:03;;;;;;;3.40;3.30;;;;;;;4.66;94.63;101123.28;4388892;32;20121;-68
2021/10/22 02:51:28;;;;;;;4.72;4.53;;;;;;;4.65;95.13;101125.03;4380126;32;20073;-68
2021/10/22 02:53:54;;;;;;;3.37;3.28;;;;;;;4.43;94.45;101071.75;4379951;32;20080;-67
2021/10/22 02:56:20;;;;;;;3.42;3.33;;;;;;;4.69;94.17;101113.66;4391924;32;20183;-69
2021/10/22 02:58:45;;;;;;;3.80;3.70;;;;;;;4.75;93.59;101104.84;4378947;32;20132;-68
2021/10/22 03:01:10;;;;;;;3.45;3.35;;;;;;;4.74;92.50;101110.97;4385455;32;20072;-69
2021/10/22 03:03:36;;;;;;;5.28;5.07;;;;;;;4.67;93.08;101120.66;4375519;32;20741;-69
2021/10/22 03:06:01;;;;;;;3.30;3.20;;;;;;;4.58;92.87;101120.81;4374485;32;20368;-69
2021/10/22 03:08:26;;;;;;;4.12;3.97;;;;;;;4.66;92.99;101118.91;4365040;32;20461;-69
2021/10/22 03:10:52;;;;;;;3.30;3.20;;;;;;;4.68;92.24;101137.94;4373596;32;20079;-69
2021/10/22 03:13:17;;;;;;;3.55;3.45;;;;;;;4.68;91.44;101119.75;4365500;32;20665;-69
2021/10/22 03:15:42;;;;;;;4.80;4.60;;;;;;;4.57;92.12;101117.38;4387242;32;20069;-68
2021/10/22 03:18:08;;;;;;;3.25;3.15;;;;;;;4.58;92.20;101108.66;4365616;32;20074;-68
2021/10/22 03:20:35;;;;;;;4.90;4.70;;;;;;;4.53;91.88;101101.84;4392510;32;20088;-66
2021/10/22 03:23:00;;;;;;;3.47;3.37;;;;;;;4.66;91.10;101118.06;4378218;32;20084;-68
2021/10/22 03:25:26;;;;;;;3.90;3.70;;;;;;;4.69;90.61;101105.88;4363668;32;20127;-68
2021/10/22 03:27:52;;;;;;;3.47;3.37;;;;;;;4.73;90.50;101117.03;4375038;32;20069;-68
2021/10/22 03:30:18;;;;;;;5.15;4.95;;;;;;;4.70;90.36;101102.38;4376221;32;20077;-69
2021/10/22 03:32:43;;;;;;;3.30;3.20;;;;;;;4.71;89.58;101118.81;4376247;32;20365;-69
2021/10/22 03:35:08;;;;;;;4.97;4.78;;;;;;;3.42;89.85;100913.66;4376448;32;20091;-69
2021/10/22 03:37:34;;;;;;;3.67;3.58;;;;;;;4.63;89.75;101133.72;4361177;32;20073;-69
2021/10/22 03:39:59;;;;;;;3.30;3.20;;;;;;;4.66;89.62;101105.91;4374113;32;20065;-69
2021/10/22 03:42:25;;;;;;;3.40;3.30;;;;;;;4.76;89.03;101107.44;4362483;32;20101;-69
2021/10/22 03:44:50;;;;;;;3.60;3.50;;;;;;;4.74;88.98;101091.00;4373618;32;20196;-68
2021/10/22 03:47:15;;;;;;;4.85;4.65;;;;;;;4.69;88.35;101095.47;4361399;32;20066;-68
2021/10/22 03:49:41;;;;;;;3.20;3.10;;;;;;;4.68;88.65;101093.75;4377313;32;20081;-68
2021/10/22 03:52:06;;;;;;;4.85;4.65;;;;;;;4.65;88.79;101093.81;4361210;32;20164;-68
2021/10/22 03:54:32;;;;;;;3.22;3.12;;;;;;;4.60;89.54;101088.69;4369063;32;20058;-68
2021/10/22 03:56:57;;;;;;;3.20;3.10;;;;;;;4.57;89.08;101093.09;4363922;32;20058;-68
2021/10/22 03:59:22;;;;;;;3.50;3.40;;;;;;;4.52;89.37;101093.22;4359870;32;20340;-68
2021/10/22 04:01:49;;;;;;;3.20;3.10;;;;;;;4.57;89.22;101098.31;4382354;32;20912;-68
2021/10/22 04:04:15;;;;;;;5.05;4.85;;;;;;;4.60;88.63;101093.06;4373530;32;20780;-68
2021/10/22 04:06:40;;;;;;;3.35;3.25;;;;;;;4.64;88.64;101092.09;4359880;32;20073;-68
2021/10/22 04:09:07;;;;;;;5.28;4.97;;;;;;;4.64;88.09;101102.50;4374423;32;20077;-68
2021/10/22 04:11:32;;;;;;;3.22;3.12;;;;;;;4.59;88.31;101093.94;4363495;32;20120;-68
2021/10/22 04:13:57;;;;;;;3.25;3.15;;;;;;;4.66;87.73;101103.31;4367204;32;20592;-68
2021/10/22 04:16:23;;;;;;;3.40;3.30;;;;;;;4.67;88.08;101106.75;4378713;32;20072;-68
2021/10/22 04:18:49;;;;;;;3.20;3.10;;;;;;;4.65;88.64;101111.16;4371193;32;20149;-66
2021/10/22 04:21:14;;;;;;;4.95;4.75;;;;;;;4.60;87.82;101119.03;4363926;32;20088;-68
2021/10/22 04:23:39;;;;;;;3.10;3.00;;;;;;;4.61;87.14;101089.59;4377613;32;20140;-68
2021/10/22 04:26:05;;;;;;;4.15;3.97;;;;;;;4.72;86.99;101095.38;4374215;32;20144;-68
2021/10/22 04:28:30;;;;;;;4.20;4.00;;;;;;;4.62;87.78;101090.44;4363249;32;20101;-68
2021/10/22 04:30:56;;;;;;;3.25;3.15;;;;;;;4.56;88.05;101100.06;4363290;32;20647;-68
2021/10/22 04:33:21;;;;;;;3.58;3.47;;;;;;;4.65;87.73;101106.81;4377716;32;20152;-68
2021/10/22 04:35:46;;;;;;;3.12;3.03;;;;;;;4.71;87.00;101092.81;4369892;32;20080;-68
2021/10/22 04:40:47;;;;;;;4.00;3.80;;;;;;;4.66;87.21;101090.31;4373385;32;20418;-68
2021/10/22 04:43:13;;;;;;;5.45;5.25;;;;;;;4.69;87.25;101084.19;4377130;32;20073;-69
2021/10/22 04:45:40;;;;;;;3.40;3.30;;;;;;;4.50;86.83;101055.16;4374041;32;20579;-68
2021/10/22 04:48:07;;;;;;;4.07;3.90;;;;;;;4.55;86.97;101087.97;4381401;32;20069;-68
2021/10/22 04:50:33;;;;;;;4.15;3.87;;;;;;;4.64;86.99;101084.31;4380417;32;20815;-68
2021/10/22 04:52:58;;;;;;;3.30;3.20;;;;;;;4.69;86.68;101087.66;4366809;32;20316;-68
2021/10/22 04:55:25;;;;;;;3.70;3.60;;;;;;;4.63;86.79;101087.81;4349223;32;21211;-68
2021/10/22 04:57:51;;;;;;;3.67;3.58;;;;;;;4.69;86.68;101087.66;4374263;32;20480;-68
2021/10/22 05:00:16;;;;;;;4.93;4.72;;;;;;;4.70;86.95;101089.38;4362476;32;20427;-68
2021/10/22 05:02:45;;;;;;;3.78;3.62;;;;;;;4.71;87.11;101100.63;4367868;32;20108;-68
2021/10/22 05:05:11;;;;;;;4.50;4.30;;;;;;;4.75;86.96;101094.47;4349952;32;20085;-68
2021/10/22 05:07:36;;;;;;;3.30;3.20;;;;;;;4.73;86.03;101097.13;4371847;32;20259;-68
2021/10/22 05:10:02;;;;;;;3.30;3.20;;;;;;;3.73;86.57;100979.66;4355942;32;20683;-68
2021/10/22 05:12:28;;;;;;;3.17;3.08;;;;;;;4.76;86.66;101109.19;4364157;32;20583;-68
2021/10/22 05:14:53;;;;;;;3.22;3.12;;;;;;;4.71;85.79;101106.69;4355815;32;20088;-66
2021/10/22 05:17:19;;;;;;;5.50;5.30;;;;;;;4.66;86.02;101118.91;4352777;32;20675;-68
2021/10/22 05:19:44;;;;;;;3.25;3.15;;;;;;;4.66;86.37;101126.72;4363860;32;20083;-68
2021/10/22 05:22:09;;;;;;;5.28;5.07;;;;;;;4.62;86.84;101119.03;4354990;32;20066;-68
2021/10/22 05:24:35;;;;;;;3.40;3.30;;;;;;;4.47;86.68;101110.66;4366904;32;20478;-68
2021/10/22 05:27:01;;;;;;;3.10;3.00;;;;;;;4.74;85.84;101134.34;4369265;32;20701;-68
2021/10/22 05:29:26;;;;;;;3.33;3.22;;;;;;;4.62;86.26;101130.28;4349334;32;20068;-68
2021/10/22 05:31:51;;;;;;;3.35;3.25;;;;;;;4.55;86.49;101136.47;4367030;32;20078;-68
2021/10/22 05:34:20;;;;;;;5.05;4.85;;;;;;;4.58;86.98;101136.41;4352889;32;20088;-68
2021/10/22 05:36:45;;;;;;;3.10;3.00;;;;;;;4.64;86.45;101138.03;4364992;32;20073;-68
2021/10/22 05:39:12;;;;;;;6.50;6.20;;;;;;;4.72;86.91;101136.13;4363338;32;20480;-68
2021/10/22 05:41:37;;;;;;;3.40;3.30;;;;;;;4.31;86.35;101063.34;4351278;32;20096;-68
2021/10/22 05:44:03;;;;;;;3.83;3.70;;;;;;;4.60;86.24;101132.88;4352790;32;20069;-68
2021/10/22 05:46:28;;;;;;;3.20;3.10;;;;;;;4.63;86.21;101126.78;4352539;32;20116;-68
2021/10/22 05:48:53;;;;;;;3.40;3.30;;;;;;;4.54;87.35;101134.78;4363852;32;20077;-67
2021/10/22 05:51:19;;;;;;;5.57;5.28;;;;;;;4.57;87.08;101138.16;4355690;32;20144;-68
2021/10/22 05:53:44;;;;;;;3.30;3.20;;;;;;;4.59;86.71;101135.50;4358755;32;20092;-68
2021/10/22 05:56:10;;;;;;;4.47;4.28;;;;;;;4.52;86.95;101136.53;4363558;32;20595;-68
2021/10/22 05:58:35;;;;;;;3.55;3.42;;;;;;;4.59;86.66;101131.19;4367348;32;20705;-68
2021/10/22 06:01:02;;;;;;;3.17;3.08;;;;;;;2.32;86.14;100777.38;4366307;32;20061;-68
2021/10/22 06:03:27;;;;;;;3.10;3.00;;;;;;;4.50;86.79;101133.97;4364927;32;20088;-68
2021/10/22 06:05:53;;;;;;;3.45;3.35;;;;;;;4.51;86.47;101127.03;4359564;32;20070;-68
2021/10/22 06:08:19;;;;;;;5.18;4.97;;;;;;;4.59;86.26;101126.00;4352081;32;20088;-67
2021/10/22 06:10:45;;;;;;;3.20;3.10;;;;;;;4.57;86.26;101116.50;4363116;32;20073;-68
2021/10/22 06:13:11;;;;;;;5.35;5.15;;;;;;;4.60;85.91;101126.84;4363014;32;20209;-68
2021/10/22 06:15:36;;;;;;;4.32;4.12;;;;;;;4.62;85.28;101124.22;4371279;32;20077;-69
2021/10/22 06:18:01;;;;;;;3.25;3.15;;;;;;;3.48;85.04;100922.16;4366784;32;20091;-69
2021/10/22 06:20:44;;;;;;;3.72;3.62;;;;;;;4.78;84.72;101116.06;4365128;32;20570;-69
2021/10/22 06:25:42;;;;;;;3.30;3.20;;;;;;;4.54;84.76;101077.59;4361563;32;20155;-68
2021/10/22 06:28:08;;;;;;;4.03;3.87;;;;;;;4.77;84.24;101111.75;4360090;32;20140;-68
2021/10/22 06:30:33;;;;;;;3.53;3.42;;;;;;;4.85;83.81;101110.72;4350652;32;20565;-69
2021/10/22 06:32:59;;;;;;;3.30;3.20;;;;;;;4.93;83.74;101103.59;4365991;32;20070;-69
2021/10/22 06:35:24;;;;;;;4.03;3.83;;;;;;;4.94;83.09;101103.56;4347511;32;20164;-68
2021/10/22 06:37:49;;;;;;;3.22;3.12;;;;;;;4.99;83.31;101103.47;4363476;32;20088;-68
2021/10/22 06:40:15;;;;;;;7.70;7.35;;;;;;;4.99;82.91;101093.06;4365180;32;20136;-68
2021/10/22 06:42:40;;;;;;;3.20;3.10;;;;;;;5.02;83.24;101099.97;4361391;32;20160;-68
2021/10/22 06:45:06;;;;;;;3.90;3.75;;;;;;;5.10;82.57;101105.84;4362042;32;20128;-68
2021/10/22 06:47:31;;;;;;;3.60;3.50;;;;;;;5.14;83.12;101099.66;4374747;32;20108;-68
2021/10/22 06:49:57;;;;;;;3.25;3.15;;;;;;;5.18;82.68;101104.75;4367501;32;20164;-68
2021/10/22 06:52:22;;;;;;;3.90;3.72;;;;;;;5.22;82.03;101102.94;4363263;32;20133;-68
2021/10/22 06:54:47;;;;;;;18.75;17.85;;;;;;;5.31;81.87;101102.75;4296200;32;20347;-70
2021/10/22 06:57:13;;;;;;;5.15;4.95;;;;;;;5.26;82.22;101106.34;4373323;32;20651;-70
2021/10/22 06:59:38;;;;;;;3.62;3.42;;;;;;;5.34;81.44;101096.59;4362355;32;20140;-69
2021/10/22 07:02:03;;;;;;;4.75;4.55;;;;;;;4.31;80.84;100935.16;4370722;32;20682;-70
2021/10/22 07:04:29;;;;;;;3.50;3.40;;;;;;;5.50;80.24;101095.31;4352697;32;20420;-69
2021/10/22 07:09:38;;;;;;;3.40;3.30;;;;;;;5.62;79.99;101103.75;4378802;32;20108;-70
2021/10/22 07:12:04;;;;;;;3.78;3.65;;;;;;;5.34;79.52;101031.53;4370026;32;20070;-72
2021/10/22 07:14:33;;;;;;;4.15;3.95;;;;;;;5.72;79.84;101108.66;4365068;32;20081;-71
2021/10/22 07:16:58;;;;;;;3.42;3.33;;;;;;;5.67;78.84;101101.84;4366640;32;20077;-73
2021/10/22 07:19:24;;;;;;;3.50;3.40;;;;;;;5.88;78.68;101110.88;4385701;32;20069;-70
2021/10/22 07:21:50;;;;;;;3.47;3.37;;;;;;;5.66;78.70;101079.34;4369808;32;20339;-73
2021/10/22 07:24:23;;;;;;;5.05;4.85;;;;;;;5.94;78.54;101123.75;4371587;32;20077;-72
2021/10/22 07:26:49;;;;;;;3.40;3.30;;;;;;;5.91;78.08;101103.84;4379829;32;20508;-73
2021/10/22 07:29:15;;;;;;;4.80;4.60;;;;;;;6.10;78.90;101127.69;4359767;32;20173;-73
2021/10/22 07:31:41;;;;;;;3.40;3.30;;;;;;;5.15;78.65;100963.47;4375537;32;20087;-72
2021/10/22 07:34:08;;;;;;;4.18;4.00;;;;;;;6.28;77.63;101141.97;4364565;32;20108;-73
2021/10/22 07:36:33;;;;;;;3.50;3.40;;;;;;;6.38;78.25;101146.03;4375338;32;20103;-73
2021/10/22 07:38:58;;;;;;;3.37;3.28;;;;;;;6.42;76.88;101128.56;4389322;32;20549;-73
2021/10/22 07:41:24;;;;;;;4.00;3.80;;;;;;;6.78;76.44;101146.66;4371992;32;20062;-73
2021/10/22 07:43:49;;;;;;;3.50;3.40;;;;;;;6.71;76.46;101122.50;4363015;32;20320;-72
2021/10/22 07:46:15;;;;;;;5.78;5.53;;;;;;;6.88;76.46;101139.44;4375743;32;20658;-72
2021/10/22 07:48:42;;;;;;;3.58;3.47;;;;;;;6.90;75.44;101142.84;4399108;32;20092;-74
2021/10/22 07:51:07;;;;;;;5.05;4.85;;;;;;;6.90;76.65;101142.84;4368026;32;20088;-73
2021/10/22 07:53:33;;;;;;;3.70;3.60;;;;;;;6.79;76.26;101149.22;4385586;32;20090;-71
2021/10/22 07:55:58;;;;;;;3.60;3.50;;;;;;;6.79;76.42;101141.41;4372580;32;20069;-71
2021/10/22 07:58:23;;;;;;;3.60;3.50;;;;;;;6.96;76.09;101146.09;4374408;32;20445;-74
2021/10/22 08:00:49;;;;;;;3.58;3.47;;;;;;;7.17;74.83;101148.97;4357404;32;20505;-73
2021/10/22 08:03:15;;;;;;;5.25;5.05;;;;;;;7.23;74.31;101148.78;4355546;32;20296;-74
2021/10/22 08:05:40;;;;;;;3.55;3.45;;;;;;;6.47;73.94;101016.31;4378053;32;20151;-73
2021/10/22 08:08:06;;;;;;;3.90;3.75;;;;;;;7.03;75.30;101130.25;4358056;32;20069;-75
2021/10/22 08:10:32;;;;;;;4.07;3.87;;;;;;;7.13;75.33;101142.97;4386356;32;20108;-73
2021/10/22 08:12:57;;;;;;;3.78;3.67;;;;;;;7.04;74.56;101127.63;4362425;32;20705;-73
2021/10/22 08:15:22;;;;;;;4.90;4.70;;;;;;;7.28;75.00;101151.25;4362255;32;20073;-72
2021/10/22 08:17:48;;;;;;;3.60;3.50;;;;;;;7.28;74.99;101136.44;4364392;32;20065;-71
2021/10/22 08:20:20;;;;;;;5.22;5.03;;;;;;;7.45;73.53;101151.56;4373063;32;20093;-72
2021/10/22 08:22:46;;;;;;;4.00;3.80;;;;;;;7.18;73.29;101099.31;4365237;32;20062;-72
2021/10/22 08:25:12;;;;;;;4.95;4.75;;;;;;;7.67;72.83;101150.88;4362352;32;20090;-71
2021/10/22 08:27:45;;;;;;;3.65;3.55;;;;;;;7.44;73.41;101095.03;4364922;32;20065;-72
2021/10/22 08:30:15;;;;;;;;;;;;;;;8.04;72.65;101163.56;4375775;32;20220;-69
2021/10/22 08:32:41;;;;;;;3.70;3.60;;;;;;;7.30;72.14;101019.75;4392411;32;20107;-71
2021/10/22 08:35:07;;;;;;;4.03;3.87;;;;;;;8.17;72.00;101145.69;4366505;32;20097;-70
2021/10/22 08:37:33;;;;;;;4.97;4.78;;;;;;;8.32;71.72;101162.63;4364634;32;20917;-69
2021/10/22 08:39:58;;;;;;;3.80;3.70;;;;;;;8.39;70.68;101164.09;4391261;32;20143;-70
2021/10/22 08:42:24;;;;;;;4.15;3.95;;;;;;;8.61;70.81;101155.50;4364479;32;20054;-70
2021/10/22 08:44:51;;;;;;;3.83;3.70;;;;;;;8.76;70.24;101160.19;4373704;32;20077;-70
2021/10/22 08:47:20;;;;;;;4.05;3.85;;;;;;;8.89;69.30;101169.25;4393423;32;20111;-70
2021/10/22 08:49:45;;;;;;;3.80;3.65;;;;;;;9.01;68.60;101154.03;4375317;32;20084;-70
2021/10/22 08:52:10;;;;;;;4.18;3.97;;;;;;;9.02;68.56;101174.91;4365199;32;20073;-69
2021/10/22 08:54:36;;;;;;;5.50;5.30;;;;;;;8.96;69.31;101165.53;4377707;32;20089;-70
2021/10/22 08:57:03;;;;;;;3.80;3.70;;;;;;;8.94;69.66;101171.69;4366951;32;20078;-71
2021/10/22 08:59:28;;;;;;;4.82;4.62;;;;;;;8.93;69.21;101180.47;4363063;32;20085;-70
2021/10/22 09:02:17;;;;;;;4.10;3.90;;;;;;;8.93;70.33;101197.03;4364059;32;20143;-69
2021/10/22 09:04:43;;;;;;;4.37;4.18;;;;;;;8.86;70.25;101160.66;4361101;32;20445;-70
2021/10/22 09:07:10;;;;;;;3.80;3.70;;;;;;;8.86;70.07;101163.28;4364735;32;20077;-70
2021/10/22 09:09:36;;;;;;;5.57;5.37;;;;;;;8.89;70.41;101173.66;4351926;32;20077;-69
2021/10/22 09:12:02;;;;;;;4.12;3.92;;;;;;;8.96;69.56;101185.59;4356197;32;20131;-71
2021/10/22 09:14:28;;;;;;;4.20;4.00;;;;;;;8.98;69.75;101178.56;4379839;32;20627;-72
2021/10/22 09:16:54;;;;;;;4.15;3.95;;;;;;;8.82;69.94;101153.84;4353291;32;20140;-71
2021/10/22 09:19:43;;;;;;;3.95;3.80;;;;;;;9.11;70.28;101171.06;4384664;32;20128;-70
2021/10/22 09:22:39;;;;;;;3.80;3.70;;;;;;;9.14;71.17;101174.44;4364034;32;20207;-70
2021/10/22 09:25:09;;;;;;;4.20;4.00;;;;;;;8.76;70.08;101121.78;4364971;32;20093;-70
2021/10/22 09:27:48;;;;;;;5.78;5.50;;;;;;;9.18;70.94;101176.03;4375970;32;20259;-70
2021/10/22 09:30:36;;;;;;;4.03;3.83;;;;;;;9.37;71.11;101176.16;4371412;32;20346;-71
2021/10/22 09:33:04;;;;;;;4.00;3.80;;;;;;;9.29;69.91;101159.88;4368133;32;20069;-71
2021/10/22 09:35:43;;;;;;;3.80;3.67;;;;;;;9.24;71.03;101167.09;4362845;32;20089;-71
2021/10/22 09:38:10;;;;;;;3.78;3.67;;;;;;;9.03;71.57;101147.81;4380925;32;21059;-71
2021/10/22 09:40:36;;;;;;;4.43;4.22;;;;;;;9.05;71.22;101184.41;4376073;32;20786;-71
2021/10/22 09:43:22;;;;;;;3.87;3.78;;;;;;;9.27;71.97;101177.41;4363013;32;20065;-71
2021/10/22 09:45:48;;;;;;;5.18;4.97;;;;;;;9.51;70.66;101201.78;4362056;32;20062;-71
2021/10/22 09:48:31;;;;;;;3.80;3.70;;;;;;;9.38;70.19;101114.13;4353013;32;20135;-71
2021/10/22 09:51:24;;;;;;;4.43;4.22;;;;;;;10.03;68.56;101175.22;4351236;32;20631;-71
2021/10/22 09:53:49;;;;;;;5.45;5.25;;;;;;;10.10;69.01;101174.06;4385256;32;20093;-70
2021/10/22 09:56:33;;;;;;;4.10;3.90;;;;;;;10.10;67.86;101129.47;4366126;32;20092;-71
2021/10/22 09:59:06;;;;;;;4.20;4.00;;;;;;;10.46;67.42;101181.25;4368349;32;20073;-71
2021/10/22 10:01:41;;;;;;;4.10;3.90;;;;;;;10.26;67.11;101168.97;4388939;32;20167;-71
2021/10/22 10:04:08;;;;;;;4.00;3.80;;;;;;;9.50;67.86;101097.06;4360201;32;20331;-71
2021/10/22 10:06:34;;;;;;;4.10;3.90;;;;;;;9.75;68.88;101159.81;4390569;32;20085;-71
2021/10/22 10:09:00;;;;;;;4.10;3.90;;;;;;;8.67;68.95;100986.06;4362202;32;20093;-71
2021/10/22 10:11:26;;;;;;;4.20;4.00;;;;;;;9.78;69.16;101181.50;4352944;32;20066;-71
2021/10/22 10:13:55;;;;;;;5.47;5.22;;;;;;;9.82;69.62;101182.19;4356169;32;20078;-70
2021/10/22 10:16:22;;;;;;;3.85;3.75;;;;;;;9.88;69.75;101181.97;4362474;32;20154;-71
2021/10/22 10:19:04;;;;;;;5.60;5.40;;;;;;;10.21;69.56;101178.00;4356289;32;20195;-72
2021/10/22 10:21:32;;;;;;;3.90;3.75;;;;;;;10.31;67.74;101177.56;4361100;32;20145;-71
2021/10/22 10:23:57;;;;;;;4.30;4.10;;;;;;;10.43;66.95;101175.31;4375492;32;20088;-71
2021/10/22 10:26:30;;;;;;;4.62;4.43;;;;;;;10.61;66.72;101190.25;4365167;32;20077;-72
2021/10/22 10:28:57;;;;;;;;;;;;;;;10.66;66.71;101184.78;4348640;32;20077;-74
2021/10/22 10:31:40;;;;;;;4.20;4.00;;;;;;;9.75;65.82;101031.38;4379107;32;20493;-73
2021/10/22 10:34:29;;;;;;;4.18;3.97;;;;;;;10.97;65.75;101189.50;4360687;32;20073;-73
2021/10/22 10:36:56;;;;;;;4.82;4.62;;;;;;;11.08;65.41;101181.97;4371447;32;20683;-73
2021/10/22 10:39:44;;;;;;;4.22;4.03;;;;;;;11.20;65.72;101184.97;4365032;32;20523;-71
2021/10/22 10:42:16;;;;;;;4.28;4.07;;;;;;;11.34;65.57;101178.09;4374455;32;20132;-72
2021/10/22 10:44:45;;;;;;;5.87;5.60;;;;;;;11.34;65.44;101182.53;4358827;32;20085;-73
2021/10/22 10:47:26;;;;;;;4.50;4.30;;;;;;;11.57;64.81;101190.16;4368108;32;20105;-71
2021/10/22 10:49:51;;;;;;;5.72;5.47;;;;;;;11.58;63.36;101191.84;4376955;32;20069;-71
2021/10/22 10:52:39;;;;;;;4.33;4.13;;;;;;;11.67;63.35;101198.47;4368379;32;20204;-73
2021/10/22 10:55:25;;;;;;;4.40;4.20;;;;;;;10.79;63.93;101054.69;4385765;32;20174;-72
2021/10/22 10:57:55;;;;;;;4.20;4.00;;;;;;;11.65;63.91;101188.94;4372418;32;20081;-72
2021/10/22 11:00:27;;;;;;;4.25;4.05;;;;;;;11.71;64.11;101184.22;4364373;32;20069;-72
2021/10/22 11:03:02;;;;;;;4.40;4.20;;;;;;;11.80;63.21;101193.44;4368275;32;20073;-74
2021/10/22 11:05:54;;;;;;;4.40;4.20;;;;;;;11.15;63.66;101209.66;4380094;32;20080;-69
2021/10/22 11:08:30;;;;;;;4.40;4.20;;;;;;;11.11;63.46;101175.75;4387591;32;20079;-69
2021/10/22 11:13:45;;;;;;;4.40;4.20;;;;;;;11.33;63.09;101186.94;4389097;32;20061;-68
2021/10/22 11:16:20;;;;;;;4.12;3.92;;;;;;;11.28;64.52;101183.66;4379892;32;20101;-69
2021/10/22 11:19:03;;;;;;;5.47;5.28;;;;;;;11.26;64.25;101145.25;4377288;32;20121;-69
2021/10/22 11:21:29;;;;;;;;;;;;;;;11.76;63.84;101174.31;4363206;32;20074;-69
2021/10/22 11:23:55;;;;;;;5.43;5.22;;;;;;;11.83;62.70;101174.03;4365209;32;20538;-69
2021/10/22 11:26:21;;;;;;;4.20;4.00;;;;;;;11.74;63.21;101160.41;4373591;32;20204;-69
2021/10/22 11:28:47;;;;;;;7.10;6.70;;;;;;;11.72;61.78;101140.38;4366890;32;20192;-72
2021/10/22 11:31:13;;;;;;;4.57;4.37;;;;;;;11.69;62.47;101172.09;4348832;32;20073;-71
2021/10/22 11:33:42;;;;;;;4.90;4.70;;;;;;;11.56;62.46;101177.09;4349749;32;20472;-72
2021/10/22 11:36:08;;;;;;;4.30;4.10;;;;;;;11.55;62.82;101173.63;4355244;32;20086;-72
2021/10/22 11:38:33;;;;;;;4.25;4.05;;;;;;;11.74;61.95;101162.19;4350944;32;20351;-72
2021/10/22 11:41:14;;;;;;;4.40;4.20;;;;;;;10.87;61.66;101052.53;4351268;32;20811;-74
2021/10/22 11:44:00;;;;;;;4.93;4.72;;;;;;;11.61;62.32;101187.41;4348272;32;20163;-74
2021/10/22 11:46:26;;;;;;;4.30;4.10;;;;;;;10.83;62.67;101092.16;4384105;32;20060;-73